createdAt,value
2019-03-10T00:01:16.840Z,93.00
2019-03-10T00:03:48.509Z,93.00
2019-03-10T00:06:22.100Z,93.10
2019-03-10T00:08:53.868Z,93.20
2019-03-10T00:11:25.663Z,93.20
2019-03-10T00:13:59.237Z,93.30
2019-03-10T00:16:31.062Z,93.40
2019-03-10T00:19:03.167Z,93.40
2019-03-10T00:21:34.994Z,93.50
2019-03-10T00:24:07.021Z,93.50
2019-03-10T00:26:38.640Z,93.60
2019-03-10T00:29:10.396Z,93.70
2019-03-10T00:31:42.238Z,93.70
2019-03-10T00:34:14.121Z,93.70
2019-03-10T00:36:45.582Z,93.80
2019-03-10T00:40:08.451Z,93.80
2019-03-10T00:43:39.049Z,93.90
2019-03-10T00:46:46.072Z,94.00
2019-03-10T00:50:14.260Z,94.00
2019-03-10T00:53:00.023Z,94.10
2019-03-10T00:55:31.365Z,94.20
2019-03-10T00:58:03.024Z,94.20
2019-03-10T01:00:34.744Z,94.20
2019-03-10T01:03:06.277Z,94.20
2019-03-10T01:05:37.810Z,94.10
2019-03-10T01:08:10.582Z,94.40
2019-03-10T01:10:42.188Z,94.00
2019-03-10T01:13:13.842Z,93.90
2019-03-10T01:15:45.462Z,93.80
2019-03-10T01:18:17.183Z,93.80
2019-03-10T01:20:48.763Z,93.70
2019-03-10T01:23:20.482Z,93.60
2019-03-10T01:25:51.980Z,93.50
2019-03-10T01:28:23.814Z,93.30
2019-03-10T01:31:16.275Z,93.30
2019-03-10T01:34:15.574Z,93.10
2019-03-10T01:36:47.801Z,93.20
2019-03-10T01:39:19.552Z,93.30
2019-03-10T01:41:51.318Z,93.30
2019-03-10T01:44:22.993Z,93.50
2019-03-10T01:46:54.642Z,93.50
2019-03-10T01:49:27.243Z,93.50
2019-03-10T01:51:58.964Z,93.60
2019-03-10T01:54:30.434Z,93.70
2019-03-10T01:57:02.239Z,93.80
2019-03-10T01:59:33.991Z,93.90
2019-03-10T02:02:05.652Z,94.00
2019-03-10T02:04:37.079Z,94.00
2019-03-10T02:07:08.607Z,94.10
2019-03-10T02:09:40.529Z,94.30
2019-03-10T02:12:12.208Z,94.30
2019-03-10T02:14:47.840Z,94.30
2019-03-10T02:17:19.662Z,94.40
2019-03-10T02:19:51.419Z,94.30
2019-03-10T02:22:23.006Z,94.30
2019-03-10T02:24:54.559Z,94.30
2019-03-10T02:27:26.149Z,94.30
2019-03-10T02:29:57.870Z,94.30
2019-03-10T02:32:29.545Z,94.30
2019-03-10T02:35:01.296Z,94.30
2019-03-10T02:37:33.780Z,94.30
2019-03-10T02:40:05.652Z,94.10
2019-03-10T02:42:37.433Z,94.00
2019-03-10T02:45:09.651Z,93.60
2019-03-10T02:47:41.325Z,93.10
2019-03-10T02:50:14.836Z,92.30
2019-03-10T02:52:46.547Z,91.60
2019-03-10T02:55:18.370Z,90.30
2019-03-10T02:57:51.025Z,89.10
2019-03-10T03:00:22.774Z,88.30
2019-03-10T03:02:54.402Z,88.20
2019-03-10T03:05:26.381Z,88.30
2019-03-10T03:07:58.155Z,88.30
2019-03-10T03:10:29.833Z,88.50
2019-03-10T03:13:01.604Z,88.70
2019-03-10T03:15:33.100Z,88.90
2019-03-10T03:18:05.098Z,88.90
2019-03-10T03:20:36.813Z,88.30
2019-03-10T03:23:08.713Z,87.10
2019-03-10T03:25:40.828Z,85.90
2019-03-10T03:28:12.422Z,85.20
2019-03-10T03:30:44.799Z,84.50
2019-03-10T03:33:16.594Z,84.30
2019-03-10T03:35:59.395Z,84.10
2019-03-10T03:38:37.901Z,84.20
2019-03-10T03:41:16.160Z,84.10
2019-03-10T03:43:47.999Z,84.60
2019-03-10T03:46:19.799Z,85.60
2019-03-10T03:48:51.686Z,86.30
2019-03-10T03:51:23.889Z,87.00
2019-03-10T03:53:55.860Z,87.20
2019-03-10T03:56:27.424Z,86.50
2019-03-10T03:58:59.186Z,85.90
2019-03-10T04:01:35.737Z,84.80
2019-03-10T04:04:07.527Z,83.70
2019-03-10T04:06:42.681Z,83.20
2019-03-10T04:09:14.535Z,83.30
2019-03-10T04:11:47.923Z,83.60
2019-03-10T04:14:19.913Z,83.50
2019-03-10T04:16:51.653Z,83.60
2019-03-10T04:19:25.363Z,83.60
2019-03-10T04:21:57.422Z,83.50
2019-03-10T04:24:29.121Z,83.60
2019-03-10T04:27:00.816Z,83.60
2019-03-10T04:29:32.488Z,83.70
2019-03-10T04:32:03.776Z,83.70
2019-03-10T04:34:35.578Z,83.80
2019-03-10T04:37:07.273Z,84.00
2019-03-10T04:39:38.975Z,83.90
2019-03-10T04:42:12.713Z,84.00
2019-03-10T04:44:44.427Z,84.00
2019-03-10T04:47:16.233Z,83.70
2019-03-10T04:49:47.783Z,83.70
2019-03-10T04:52:19.385Z,83.60
2019-03-10T04:55:18.622Z,83.40
2019-03-10T04:58:00.686Z,83.40
2019-03-10T05:00:33.482Z,83.50
2019-03-10T05:03:05.432Z,83.60
2019-03-10T05:05:37.133Z,83.60
2019-03-10T05:08:08.934Z,83.80
2019-03-10T05:10:40.779Z,83.90
2019-03-10T05:13:13.142Z,84.10
2019-03-10T05:15:44.695Z,84.10
2019-03-10T05:18:18.663Z,84.00
2019-03-10T05:20:50.506Z,84.00
2019-03-10T05:23:33.619Z,84.00
2019-03-10T05:26:05.677Z,84.10
2019-03-10T05:28:38.945Z,84.00
2019-03-10T05:31:10.679Z,84.10
2019-03-10T05:33:42.481Z,84.40
2019-03-10T05:36:14.428Z,84.40
2019-03-10T05:38:46.053Z,84.10
2019-03-10T05:41:17.760Z,84.00
2019-03-10T05:43:49.441Z,84.00
2019-03-10T05:46:22.157Z,83.80
2019-03-10T05:48:54.050Z,83.70
2019-03-10T05:51:25.965Z,83.50
2019-03-10T05:53:57.854Z,83.30
2019-03-10T05:56:30.057Z,83.10
2019-03-10T05:59:05.344Z,82.90
2019-03-10T06:01:37.217Z,82.70
2019-03-10T06:04:09.112Z,82.80
2019-03-10T06:06:41.376Z,82.90
2019-03-10T06:09:13.303Z,82.50
2019-03-10T06:11:46.215Z,82.00
2019-03-10T06:14:20.986Z,81.60
2019-03-10T06:16:54.173Z,81.30
2019-03-10T06:19:25.963Z,81.30
2019-03-10T06:21:57.941Z,81.20
2019-03-10T06:24:30.914Z,81.10
2019-03-10T06:27:03.268Z,81.10
2019-03-10T06:29:35.146Z,81.30
2019-03-10T06:32:07.064Z,81.60
2019-03-10T06:34:38.701Z,81.90
2019-03-10T06:37:10.038Z,82.20
2019-03-10T06:39:42.076Z,82.30
2019-03-10T06:42:13.754Z,82.50
2019-03-10T06:44:45.791Z,82.60
2019-03-10T06:47:17.867Z,83.60
2019-03-10T06:49:51.192Z,83.00
2019-03-10T06:52:28.547Z,82.90
2019-03-10T06:55:00.451Z,82.30
2019-03-10T06:57:32.108Z,81.80
2019-03-10T07:00:03.758Z,81.60
2019-03-10T07:02:35.524Z,81.00
2019-03-10T07:05:08.040Z,80.00
2019-03-10T07:07:39.884Z,78.20
2019-03-10T07:10:24.684Z,77.40
2019-03-10T07:12:56.926Z,77.30
2019-03-10T07:15:29.041Z,76.00
2019-03-10T07:18:01.446Z,74.30
2019-03-10T07:20:33.101Z,73.30
2019-03-10T07:23:06.531Z,73.50
2019-03-10T07:25:38.275Z,74.00
2019-03-10T07:28:19.874Z,74.50
2019-03-10T07:31:10.368Z,75.10
2019-03-10T07:34:04.652Z,75.30
2019-03-10T07:36:56.477Z,75.30
2019-03-10T07:39:49.249Z,75.00
2019-03-10T07:42:42.312Z,74.50
2019-03-10T07:45:40.894Z,73.40
2019-03-10T07:48:31.981Z,72.30
2019-03-10T07:51:12.652Z,71.40
2019-03-10T07:54:03.142Z,69.40
2019-03-10T07:56:43.522Z,67.10
2019-03-10T07:59:26.193Z,65.00
2019-03-10T08:02:19.499Z,65.20
2019-03-10T08:05:02.620Z,65.70
2019-03-10T08:08:10.830Z,66.50
2019-03-10T08:11:06.658Z,66.50
2019-03-10T08:14:08.197Z,65.70
2019-03-10T08:17:04.871Z,65.90
2019-03-10T08:19:55.224Z,66.20
2019-03-10T08:23:03.551Z,66.10
2019-03-10T08:25:58.970Z,65.80
2019-03-10T08:28:46.853Z,60.90
2019-03-10T08:31:51.942Z,56.40
2019-03-10T08:34:39.444Z,55.70
2019-03-10T08:37:31.916Z,56.70
2019-03-10T08:40:23.230Z,57.50
2019-03-10T08:43:06.031Z,57.10
2019-03-10T08:45:48.545Z,56.30
2019-03-10T08:48:29.822Z,57.10
2019-03-10T08:51:17.059Z,57.80
2019-03-10T08:53:59.746Z,57.80
2019-03-10T08:56:41.385Z,58.70
2019-03-10T08:59:40.895Z,58.50
2019-03-10T09:02:28.379Z,59.70
2019-03-10T09:05:19.689Z,61.40
2019-03-10T09:08:11.409Z,63.80
2019-03-10T09:11:02.140Z,64.50
2019-03-10T09:13:43.707Z,66.00
2019-03-10T09:16:45.710Z,66.90
2019-03-10T09:19:47.491Z,67.60
2019-03-10T09:22:46.567Z,68.10
2019-03-10T09:25:39.784Z,68.40
2019-03-10T09:28:33.003Z,68.50
2019-03-10T09:31:16.487Z,68.20
2019-03-10T09:34:07.588Z,67.70
2019-03-10T09:37:00.357Z,64.90
2019-03-10T09:39:51.771Z,61.90
2019-03-10T09:42:42.263Z,59.70
2019-03-10T09:45:23.801Z,58.60
2019-03-10T09:48:03.725Z,58.60
2019-03-10T09:50:52.185Z,59.50
2019-03-10T09:54:00.165Z,59.90
2019-03-10T09:56:54.891Z,60.60
2019-03-10T09:59:49.135Z,61.10
2019-03-10T10:02:39.823Z,61.90
2019-03-10T10:05:27.183Z,62.50
2019-03-10T10:08:22.771Z,63.10
2019-03-10T10:11:14.491Z,63.80
2019-03-10T10:14:00.599Z,64.30
2019-03-10T10:16:56.515Z,64.50
2019-03-10T10:19:39.826Z,64.20
2019-03-10T10:22:35.876Z,63.70
2019-03-10T10:25:24.397Z,63.70
2019-03-10T10:28:12.131Z,63.70
2019-03-10T10:31:07.776Z,64.00
2019-03-10T10:34:04.721Z,64.30
2019-03-10T10:36:55.823Z,64.90
2019-03-10T10:39:49.597Z,65.50
2019-03-10T10:42:42.453Z,65.60
2019-03-10T10:45:22.955Z,66.00
2019-03-10T10:48:11.456Z,66.20
2019-03-10T10:50:53.332Z,66.50
2019-03-10T10:53:49.097Z,66.20
2019-03-10T10:56:44.690Z,65.90
2019-03-10T10:59:42.744Z,64.70
2019-03-10T11:02:36.497Z,64.50
2019-03-10T11:05:34.202Z,64.30
2019-03-10T11:08:26.623Z,63.90
2019-03-10T11:11:13.029Z,63.40
2019-03-10T11:14:08.439Z,63.30
2019-03-10T11:17:04.584Z,63.10
2019-03-10T11:19:54.045Z,62.80
2019-03-10T11:22:33.788Z,62.30
2019-03-10T11:25:32.637Z,62.00
2019-03-10T11:28:22.651Z,61.70
2019-03-10T11:31:20.424Z,61.00
2019-03-10T11:34:07.547Z,60.60
2019-03-10T11:36:59.995Z,59.90
2019-03-10T11:39:52.130Z,60.30
2019-03-10T11:42:51.340Z,59.80
2019-03-10T11:45:44.044Z,60.00
2019-03-10T11:48:45.334Z,60.00
2019-03-10T11:51:45.762Z,60.30
2019-03-10T11:54:38.407Z,60.50
2019-03-10T11:57:23.098Z,60.70
2019-03-10T12:00:13.750Z,60.80
2019-03-10T12:03:02.207Z,60.90
2019-03-10T12:05:49.973Z,60.30
2019-03-10T12:08:40.136Z,60.10
2019-03-10T12:11:11.943Z,60.40
2019-03-10T12:13:47.638Z,60.70
2019-03-10T12:16:21.020Z,60.90
2019-03-10T12:18:52.778Z,60.90
2019-03-10T12:21:24.796Z,60.70
2019-03-10T12:23:58.722Z,60.60
2019-03-10T12:26:30.405Z,60.60
2019-03-10T12:29:02.281Z,60.60
2019-03-10T12:31:34.475Z,60.70
2019-03-10T12:34:06.612Z,60.60
2019-03-10T12:36:38.668Z,60.70
2019-03-10T12:39:12.885Z,60.50
2019-03-10T12:41:57.876Z,60.10
2019-03-10T12:44:22.437Z,60.10
2019-03-10T12:46:54.331Z,60.30
2019-03-10T12:49:26.196Z,60.10
2019-03-10T12:51:59.421Z,60.10
2019-03-10T12:54:31.183Z,60.40
2019-03-10T12:57:02.903Z,60.30
2019-03-10T12:59:36.069Z,60.30
2019-03-10T13:02:07.970Z,60.10
2019-03-10T13:04:41.364Z,59.80
2019-03-10T13:07:13.690Z,59.90
2019-03-10T13:09:47.199Z,60.00
2019-03-10T13:12:19.378Z,60.00
2019-03-10T13:14:59.002Z,60.00
2019-03-10T13:17:24.695Z,59.90
2019-03-10T13:19:56.494Z,59.90
2019-03-10T13:22:28.203Z,59.90
2019-03-10T13:25:02.298Z,59.90
2019-03-10T13:27:36.452Z,60.00
2019-03-10T13:30:09.464Z,60.00
2019-03-10T13:32:43.971Z,60.10
2019-03-10T13:35:15.491Z,60.00
2019-03-10T13:37:47.439Z,59.80
2019-03-10T13:40:19.257Z,59.30
2019-03-10T13:42:51.233Z,59.00
2019-03-10T13:45:23.276Z,58.90
2019-03-10T13:47:55.118Z,58.70
2019-03-10T13:50:26.922Z,58.40
2019-03-10T13:52:59.203Z,58.40
2019-03-10T13:55:30.969Z,58.60
2019-03-10T13:58:03.348Z,58.80
2019-03-10T14:00:35.266Z,59.00
2019-03-10T14:03:07.959Z,59.10
2019-03-10T14:05:41.574Z,59.20
2019-03-10T14:08:13.652Z,59.40
2019-03-10T14:10:47.113Z,59.60
2019-03-10T14:13:18.916Z,59.60
2019-03-10T14:15:51.670Z,59.60
2019-03-10T14:18:23.595Z,59.60
2019-03-10T14:20:57.381Z,59.50
2019-03-10T14:23:29.380Z,59.60
2019-03-10T14:26:01.126Z,59.50
2019-03-10T14:28:32.814Z,59.30
2019-03-10T14:31:07.199Z,58.80
2019-03-10T14:33:39.016Z,58.10
2019-03-10T14:36:13.906Z,57.70
2019-03-10T14:38:48.186Z,57.50
2019-03-10T14:41:24.049Z,57.30
2019-03-10T14:43:57.134Z,57.20
2019-03-10T14:46:28.800Z,57.00
2019-03-10T14:49:08.568Z,57.00
2019-03-10T14:51:40.364Z,56.70
2019-03-10T14:54:12.323Z,56.50
2019-03-10T14:56:45.763Z,56.40
2019-03-10T14:59:19.296Z,56.50
2019-03-10T15:01:50.892Z,56.60
2019-03-10T15:04:23.030Z,56.50
2019-03-10T15:06:54.906Z,56.60
2019-03-10T15:09:30.604Z,56.70
2019-03-10T15:12:02.593Z,56.80
2019-03-10T15:14:34.638Z,57.00
2019-03-10T15:17:06.363Z,57.20
2019-03-10T15:19:40.118Z,57.30
2019-03-10T15:22:12.123Z,57.50
2019-03-10T15:24:45.212Z,57.60
2019-03-10T15:27:23.252Z,57.60
2019-03-10T15:29:51.728Z,57.20
2019-03-10T15:32:25.726Z,56.80
2019-03-10T15:34:58.531Z,56.00
2019-03-10T15:37:30.354Z,56.10
2019-03-10T15:40:02.315Z,55.90
2019-03-10T15:42:34.373Z,55.80
2019-03-10T15:45:06.392Z,55.70
2019-03-10T15:47:38.334Z,55.50
2019-03-10T15:50:34.855Z,55.20
2019-03-10T15:53:13.598Z,55.10
2019-03-10T15:55:48.519Z,55.40
2019-03-10T15:58:23.102Z,55.50
2019-03-10T16:00:56.478Z,55.50
2019-03-10T16:03:28.238Z,55.70
2019-03-10T16:06:01.751Z,55.90
2019-03-10T16:08:39.318Z,56.00
2019-03-10T16:11:11.168Z,56.30
2019-03-10T16:13:49.097Z,56.50
2019-03-10T16:16:25.312Z,56.80
2019-03-10T16:18:59.252Z,57.20
2019-03-10T16:21:31.284Z,57.40
2019-03-10T16:24:03.074Z,57.70
2019-03-10T16:26:34.908Z,57.90
2019-03-10T16:29:09.054Z,57.80
2019-03-10T16:31:40.834Z,58.30
2019-03-10T16:34:21.492Z,58.60
2019-03-10T16:36:53.245Z,58.90
2019-03-10T16:39:27.145Z,59.30
2019-03-10T16:42:01.344Z,59.70
2019-03-10T16:44:38.002Z,59.90
2019-03-10T16:47:12.572Z,60.20
2019-03-10T16:49:47.850Z,60.80
2019-03-10T16:52:19.827Z,61.40
2019-03-10T16:54:52.060Z,61.90
2019-03-10T16:57:24.933Z,62.50
2019-03-10T16:59:57.116Z,63.10
2019-03-10T17:02:30.018Z,63.70
2019-03-10T17:05:02.710Z,64.30
2019-03-10T17:07:34.122Z,65.10
2019-03-10T17:10:10.870Z,66.20
2019-03-10T17:12:43.002Z,66.20
2019-03-10T17:15:16.039Z,66.50
2019-03-10T17:17:47.741Z,66.50
2019-03-10T17:20:19.403Z,66.70
2019-03-10T17:22:51.493Z,67.40
2019-03-10T17:25:23.356Z,68.40
2019-03-10T17:27:55.486Z,69.30
2019-03-10T17:30:28.947Z,70.40
2019-03-10T17:33:00.922Z,71.30
2019-03-10T17:35:34.030Z,72.20
2019-03-10T17:38:10.174Z,73.10
2019-03-10T17:40:42.034Z,73.70
2019-03-10T17:43:13.992Z,75.00
2019-03-10T17:45:47.564Z,76.00
2019-03-10T17:48:19.790Z,76.40
2019-03-10T17:50:51.668Z,77.20
2019-03-10T17:53:23.340Z,77.40
2019-03-10T17:55:58.408Z,77.90
2019-03-10T17:58:33.755Z,78.30
2019-03-10T18:01:04.782Z,78.60
2019-03-10T18:03:37.542Z,79.30
2019-03-10T18:06:10.689Z,79.60
2019-03-10T18:08:42.629Z,80.00
2019-03-10T18:11:14.417Z,80.30
2019-03-10T18:13:46.458Z,80.60
2019-03-10T18:16:18.560Z,80.90
2019-03-10T18:18:50.546Z,81.00
2019-03-10T18:21:22.394Z,81.20
2019-03-10T18:23:56.571Z,81.70
2019-03-10T18:26:28.467Z,82.20
2019-03-10T18:29:00.684Z,82.50
2019-03-10T18:31:32.523Z,82.80
2019-03-10T18:34:04.264Z,83.20
2019-03-10T18:36:40.384Z,83.70
2019-03-10T18:39:12.156Z,84.00
2019-03-10T18:41:44.162Z,84.60
2019-03-10T18:44:16.017Z,85.10
2019-03-10T18:46:47.736Z,85.50
2019-03-10T18:49:19.746Z,85.80
2019-03-10T18:51:51.630Z,86.20
2019-03-10T18:54:23.196Z,86.60
2019-03-10T18:56:55.580Z,86.90
2019-03-10T18:59:29.534Z,87.10
2019-03-10T19:02:01.160Z,87.20
2019-03-10T19:04:32.979Z,88.10
2019-03-10T19:07:04.990Z,87.50
2019-03-10T19:09:39.395Z,87.60
2019-03-10T19:12:11.262Z,87.90
2019-03-10T19:14:43.630Z,88.20
2019-03-10T19:17:15.734Z,88.90
2019-03-10T19:19:51.198Z,88.70
2019-03-10T19:22:22.938Z,88.90
2019-03-10T19:24:54.787Z,89.20
2019-03-10T19:27:30.211Z,89.30
2019-03-10T19:30:00.368Z,89.60
2019-03-10T19:32:34.201Z,89.90
2019-03-10T19:35:06.311Z,90.10
2019-03-10T19:37:38.339Z,90.20
2019-03-10T19:40:11.584Z,90.30
2019-03-10T19:42:45.423Z,90.40
2019-03-10T19:45:18.163Z,90.60
2019-03-10T19:47:52.018Z,90.70
2019-03-10T19:50:27.037Z,90.70
2019-03-10T19:52:58.589Z,90.70
2019-03-10T19:55:30.783Z,90.80
2019-03-10T19:58:04.872Z,90.90
2019-03-10T20:00:36.548Z,91.00
2019-03-10T20:03:09.687Z,91.10
2019-03-10T20:05:41.657Z,91.20
2019-03-10T20:08:14.784Z,91.40
2019-03-10T20:10:47.610Z,91.40
2019-03-10T20:13:20.834Z,91.50
2019-03-10T20:15:54.292Z,91.50
2019-03-10T20:18:26.275Z,91.50
2019-03-10T20:20:58.421Z,91.60
2019-03-10T20:23:30.460Z,91.70
2019-03-10T20:26:02.388Z,91.80
2019-03-10T20:28:35.643Z,91.90
2019-03-10T20:31:07.658Z,92.30
2019-03-10T20:33:39.574Z,92.10
2019-03-10T20:36:13.226Z,92.20
2019-03-10T20:38:46.409Z,92.20
2019-03-10T20:41:18.608Z,92.30
2019-03-10T20:43:52.479Z,92.30
2019-03-10T20:46:24.336Z,91.90
2019-03-10T20:48:58.904Z,92.20
2019-03-10T20:51:31.718Z,92.10
2019-03-10T20:54:03.440Z,92.00
2019-03-10T20:56:35.241Z,92.00
2019-03-10T20:59:09.300Z,92.00
2019-03-10T21:01:42.136Z,92.00
2019-03-10T21:04:16.820Z,92.00
2019-03-10T21:06:49.981Z,92.00
2019-03-10T21:09:22.154Z,92.00
2019-03-10T21:11:57.562Z,91.90
2019-03-10T21:14:29.646Z,91.90
2019-03-10T21:17:02.403Z,92.00
2019-03-10T21:19:36.348Z,92.00
2019-03-10T21:22:08.590Z,92.30
2019-03-10T21:24:41.278Z,92.10
2019-03-10T21:27:13.527Z,92.20
2019-03-10T21:29:47.348Z,92.20
2019-03-10T21:32:19.955Z,92.30
2019-03-10T21:34:51.608Z,92.40
2019-03-10T21:37:24.799Z,92.60
2019-03-10T21:39:56.558Z,92.60
2019-03-10T21:42:30.891Z,92.60
2019-03-10T21:45:05.409Z,92.70
2019-03-10T21:47:36.972Z,92.70
2019-03-10T21:50:09.833Z,92.90
2019-03-10T21:52:41.652Z,93.00
2019-03-10T21:55:13.636Z,93.10
2019-03-10T21:57:46.308Z,93.20
2019-03-10T22:00:18.121Z,93.20
2019-03-10T22:02:49.927Z,93.20
2019-03-10T22:05:23.185Z,93.20
2019-03-10T22:07:55.045Z,93.20
2019-03-10T22:10:29.956Z,93.30
2019-03-10T22:13:03.378Z,93.30
2019-03-10T22:15:41.774Z,93.30
2019-03-10T22:18:10.974Z,93.30
2019-03-10T22:20:42.766Z,93.40
2019-03-10T22:23:14.712Z,93.40
2019-03-10T22:25:46.586Z,93.50
2019-03-10T22:28:18.399Z,93.50
2019-03-10T22:30:52.258Z,93.60
2019-03-10T22:33:24.614Z,93.70
2019-03-10T22:35:58.196Z,93.80
2019-03-10T22:38:42.190Z,93.90
2019-03-10T22:41:13.276Z,94.00
2019-03-10T22:43:49.171Z,93.90
2019-03-10T22:46:22.194Z,94.00
2019-03-10T22:48:53.988Z,94.10
2019-03-10T22:51:25.760Z,94.10
2019-03-10T22:53:57.496Z,94.10
2019-03-10T22:56:29.462Z,94.20
2019-03-10T22:59:01.361Z,94.30
2019-03-10T23:01:33.284Z,94.40
2019-03-10T23:04:05.118Z,94.30
2019-03-10T23:06:37.439Z,94.40
2019-03-10T23:09:11.018Z,94.50
2019-03-10T23:11:42.847Z,94.50
2019-03-10T23:14:14.846Z,94.60
2019-03-10T23:16:46.802Z,94.70
2019-03-10T23:19:18.786Z,94.70
2019-03-10T23:21:54.052Z,94.80
2019-03-10T23:24:25.971Z,94.80
2019-03-10T23:26:59.073Z,94.80
2019-03-10T23:29:32.891Z,94.70
2019-03-10T23:32:04.870Z,94.80
2019-03-10T23:34:38.470Z,94.90
2019-03-10T23:37:12.428Z,95.00
2019-03-10T23:39:44.293Z,95.10
2019-03-10T23:42:17.801Z,95.10
2019-03-10T23:44:49.634Z,95.20
2019-03-10T23:47:21.348Z,95.30
2019-03-10T23:49:53.461Z,95.40
2019-03-10T23:52:25.288Z,95.30
2019-03-10T23:54:57.575Z,95.30
2019-03-10T23:57:29.888Z,95.30
